sensor_id;sensor_type;location;lat;lon;timestamp;P1;durP1;ratioP1;P2;durP2;ratioP2
21426;SDS011;10874;49.452;11.050;2024-02-28T00:02:03;23.70;;;17.57;;
21426;SDS011;10874;49.452;11.050;2024-02-28T00:04:30;24.87;;;17.27;;
21426;SDS011;10874;49.452;11.050;2024-02-28T00:06:57;25.67;;;17.10;;
21426;SDS011;10874;49.452;11.050;2024-02-28T00:09:24;26.23;;;17.70;;
21426;SDS011;10874;49.452;11.050;2024-02-28T00:11:51;23.67;;;17.43;;
21426;SDS011;10874;49.452;11.050;2024-02-28T00:14:18;27.07;;;17.63;;
21426;SDS011;10874;49.452;11.050;2024-02-28T00:16:45;21.67;;;16.27;;
21426;SDS011;10874;49.452;11.050;2024-02-28T00:19:12;24.40;;;17.20;;
21426;SDS011;10874;49.452;11.050;2024-02-28T00:21:40;22.23;;;16.47;;
21426;SDS011;10874;49.452;11.050;2024-02-28T00:24:07;27.87;;;18.10;;
21426;SDS011;10874;49.452;11.050;2024-02-28T00:26:34;25.73;;;17.40;;
21426;SDS011;10874;49.452;11.050;2024-02-28T00:29:01;23.63;;;17.07;;
21426;SDS011;10874;49.452;11.050;2024-02-28T00:31:28;26.67;;;17.90;;
21426;SDS011;10874;49.452;11.050;2024-02-28T00:33:55;22.80;;;16.37;;
21426;SDS011;10874;49.452;11.050;2024-02-28T00:36:22;24.17;;;16.83;;
21426;SDS011;10874;49.452;11.050;2024-02-28T00:38:49;23.13;;;17.87;;
21426;SDS011;10874;49.452;11.050;2024-02-28T00:41:15;23.67;;;17.03;;
21426;SDS011;10874;49.452;11.050;2024-02-28T00:43:42;23.67;;;16.60;;
21426;SDS011;10874;49.452;11.050;2024-02-28T00:46:09;24.63;;;17.10;;
21426;SDS011;10874;49.452;11.050;2024-02-28T00:48:39;23.63;;;16.53;;
21426;SDS011;10874;49.452;11.050;2024-02-28T00:51:06;24.53;;;17.30;;
21426;SDS011;10874;49.452;11.050;2024-02-28T00:53:34;25.63;;;16.23;;
21426;SDS011;10874;49.452;11.050;2024-02-28T00:56:01;25.87;;;17.00;;
21426;SDS011;10874;49.452;11.050;2024-02-28T00:58:28;24.63;;;16.83;;
21426;SDS011;10874;49.452;11.050;2024-02-28T01:00:57;22.80;;;16.70;;
21426;SDS011;10874;49.452;11.050;2024-02-28T01:03:24;23.63;;;16.40;;
21426;SDS011;10874;49.452;11.050;2024-02-28T01:05:51;21.90;;;16.20;;
21426;SDS011;10874;49.452;11.050;2024-02-28T01:08:18;21.20;;;15.20;;
21426;SDS011;10874;49.452;11.050;2024-02-28T01:10:45;22.67;;;15.77;;
21426;SDS011;10874;49.452;11.050;2024-02-28T01:13:12;25.40;;;16.97;;
21426;SDS011;10874;49.452;11.050;2024-02-28T01:15:39;23.10;;;16.43;;
21426;SDS011;10874;49.452;11.050;2024-02-28T01:18:06;24.20;;;17.27;;
21426;SDS011;10874;49.452;11.050;2024-02-28T01:20:33;23.33;;;16.47;;
21426;SDS011;10874;49.452;11.050;2024-02-28T01:23:00;24.03;;;16.43;;
21426;SDS011;10874;49.452;11.050;2024-02-28T01:25:27;24.23;;;16.93;;
21426;SDS011;10874;49.452;11.050;2024-02-28T01:27:55;23.80;;;17.63;;
21426;SDS011;10874;49.452;11.050;2024-02-28T01:30:22;24.27;;;16.63;;
21426;SDS011;10874;49.452;11.050;2024-02-28T01:32:49;23.93;;;16.10;;
21426;SDS011;10874;49.452;11.050;2024-02-28T01:35:16;22.60;;;16.63;;
21426;SDS011;10874;49.452;11.050;2024-02-28T01:37:42;23.97;;;16.90;;
21426;SDS011;10874;49.452;11.050;2024-02-28T01:40:10;23.60;;;16.10;;
21426;SDS011;10874;49.452;11.050;2024-02-28T01:42:36;20.87;;;15.57;;
21426;SDS011;10874;49.452;11.050;2024-02-28T01:45:04;27.93;;;17.70;;
21426;SDS011;10874;49.452;11.050;2024-02-28T01:47:30;25.13;;;17.37;;
21426;SDS011;10874;49.452;11.050;2024-02-28T01:49:57;25.13;;;16.47;;
21426;SDS011;10874;49.452;11.050;2024-02-28T01:52:24;26.40;;;17.27;;
21426;SDS011;10874;49.452;11.050;2024-02-28T01:54:51;37.23;;;24.43;;
21426;SDS011;10874;49.452;11.050;2024-02-28T01:57:19;24.07;;;16.73;;
21426;SDS011;10874;49.452;11.050;2024-02-28T01:59:45;23.40;;;16.23;;
21426;SDS011;10874;49.452;11.050;2024-02-28T02:02:12;21.20;;;16.00;;
21426;SDS011;10874;49.452;11.050;2024-02-28T02:04:39;23.93;;;16.53;;
21426;SDS011;10874;49.452;11.050;2024-02-28T02:07:06;26.47;;;16.93;;
21426;SDS011;10874;49.452;11.050;2024-02-28T02:09:34;24.00;;;16.87;;
21426;SDS011;10874;49.452;11.050;2024-02-28T02:12:01;23.00;;;16.23;;
21426;SDS011;10874;49.452;11.050;2024-02-28T02:14:28;24.57;;;16.67;;
21426;SDS011;10874;49.452;11.050;2024-02-28T02:16:55;23.07;;;17.03;;
21426;SDS011;10874;49.452;11.050;2024-02-28T02:19:21;22.57;;;15.80;;
21426;SDS011;10874;49.452;11.050;2024-02-28T02:21:58;25.00;;;16.80;;
21426;SDS011;10874;49.452;11.050;2024-02-28T02:24:25;22.70;;;16.53;;
21426;SDS011;10874;49.452;11.050;2024-02-28T02:26:56;26.07;;;17.37;;
21426;SDS011;10874;49.452;11.050;2024-02-28T02:29:23;23.30;;;16.20;;
21426;SDS011;10874;49.452;11.050;2024-02-28T02:31:50;23.83;;;16.33;;
21426;SDS011;10874;49.452;11.050;2024-02-28T02:34:17;25.50;;;17.03;;
21426;SDS011;10874;49.452;11.050;2024-02-28T02:36:44;24.00;;;16.17;;
21426;SDS011;10874;49.452;11.050;2024-02-28T02:39:10;22.43;;;15.40;;
21426;SDS011;10874;49.452;11.050;2024-02-28T02:41:37;22.13;;;15.30;;
21426;SDS011;10874;49.452;11.050;2024-02-28T02:44:04;25.23;;;16.47;;
21426;SDS011;10874;49.452;11.050;2024-02-28T02:46:31;22.27;;;15.17;;
21426;SDS011;10874;49.452;11.050;2024-02-28T02:48:57;21.80;;;14.97;;
21426;SDS011;10874;49.452;11.050;2024-02-28T02:51:24;23.10;;;15.57;;
21426;SDS011;10874;49.452;11.050;2024-02-28T02:53:52;23.30;;;15.90;;
21426;SDS011;10874;49.452;11.050;2024-02-28T02:56:20;22.57;;;16.30;;
21426;SDS011;10874;49.452;11.050;2024-02-28T02:58:47;24.63;;;16.40;;
21426;SDS011;10874;49.452;11.050;2024-02-28T03:01:14;22.77;;;15.90;;
21426;SDS011;10874;49.452;11.050;2024-02-28T03:03:41;21.20;;;15.60;;
21426;SDS011;10874;49.452;11.050;2024-02-28T03:06:08;23.07;;;16.80;;
21426;SDS011;10874;49.452;11.050;2024-02-28T03:08:36;22.70;;;15.80;;
21426;SDS011;10874;49.452;11.050;2024-02-28T03:11:03;23.20;;;16.20;;
21426;SDS011;10874;49.452;11.050;2024-02-28T03:13:31;23.53;;;15.50;;
21426;SDS011;10874;49.452;11.050;2024-02-28T03:15:58;23.10;;;16.17;;
21426;SDS011;10874;49.452;11.050;2024-02-28T03:18:24;22.03;;;15.77;;
21426;SDS011;10874;49.452;11.050;2024-02-28T03:20:51;20.20;;;14.93;;
21426;SDS011;10874;49.452;11.050;2024-02-28T03:23:18;23.33;;;16.23;;
21426;SDS011;10874;49.452;11.050;2024-02-28T03:25:45;24.40;;;16.93;;
21426;SDS011;10874;49.452;11.050;2024-02-28T03:28:11;22.20;;;15.80;;
21426;SDS011;10874;49.452;11.050;2024-02-28T03:30:38;23.43;;;15.53;;
21426;SDS011;10874;49.452;11.050;2024-02-28T03:33:05;23.67;;;16.00;;
21426;SDS011;10874;49.452;11.050;2024-02-28T03:35:32;22.17;;;15.70;;
21426;SDS011;10874;49.452;11.050;2024-02-28T03:37:59;24.50;;;15.80;;
21426;SDS011;10874;49.452;11.050;2024-02-28T03:40:25;23.37;;;15.87;;
21426;SDS011;10874;49.452;11.050;2024-02-28T03:42:52;22.07;;;15.40;;
21426;SDS011;10874;49.452;11.050;2024-02-28T03:45:19;23.07;;;16.17;;
21426;SDS011;10874;49.452;11.050;2024-02-28T03:47:46;22.77;;;15.63;;
21426;SDS011;10874;49.452;11.050;2024-02-28T03:50:13;24.03;;;16.33;;
21426;SDS011;10874;49.452;11.050;2024-02-28T03:52:40;23.37;;;16.13;;
21426;SDS011;10874;49.452;11.050;2024-02-28T03:55:07;23.60;;;15.17;;
21426;SDS011;10874;49.452;11.050;2024-02-28T03:57:34;23.10;;;16.00;;
21426;SDS011;10874;49.452;11.050;2024-02-28T04:00:01;21.77;;;14.97;;
21426;SDS011;10874;49.452;11.050;2024-02-28T04:02:37;23.03;;;15.47;;
21426;SDS011;10874;49.452;11.050;2024-02-28T04:05:04;22.20;;;15.00;;
21426;SDS011;10874;49.452;11.050;2024-02-28T04:07:31;22.40;;;14.97;;
21426;SDS011;10874;49.452;11.050;2024-02-28T04:09:57;23.17;;;15.77;;
21426;SDS011;10874;49.452;11.050;2024-02-28T04:12:24;20.87;;;14.30;;
21426;SDS011;10874;49.452;11.050;2024-02-28T04:14:51;23.70;;;15.80;;
21426;SDS011;10874;49.452;11.050;2024-02-28T04:17:18;21.53;;;14.57;;
21426;SDS011;10874;49.452;11.050;2024-02-28T04:19:44;21.63;;;15.07;;
21426;SDS011;10874;49.452;11.050;2024-02-28T04:22:11;20.03;;;13.87;;
21426;SDS011;10874;49.452;11.050;2024-02-28T04:24:38;21.87;;;14.77;;
21426;SDS011;10874;49.452;11.050;2024-02-28T04:27:05;20.80;;;14.43;;
21426;SDS011;10874;49.452;11.050;2024-02-28T04:29:32;21.57;;;14.03;;
21426;SDS011;10874;49.452;11.050;2024-02-28T04:31:59;20.30;;;14.30;;
21426;SDS011;10874;49.452;11.050;2024-02-28T04:34:25;19.53;;;13.93;;
21426;SDS011;10874;49.452;11.050;2024-02-28T04:36:52;20.50;;;14.43;;
21426;SDS011;10874;49.452;11.050;2024-02-28T04:39:19;19.03;;;13.57;;
21426;SDS011;10874;49.452;11.050;2024-02-28T04:41:46;20.57;;;13.40;;
21426;SDS011;10874;49.452;11.050;2024-02-28T04:44:13;21.33;;;14.60;;
21426;SDS011;10874;49.452;11.050;2024-02-28T04:46:39;19.00;;;13.30;;
21426;SDS011;10874;49.452;11.050;2024-02-28T04:49:06;19.03;;;12.47;;
21426;SDS011;10874;49.452;11.050;2024-02-28T04:51:33;20.57;;;13.60;;
21426;SDS011;10874;49.452;11.050;2024-02-28T04:54:00;18.27;;;13.07;;
21426;SDS011;10874;49.452;11.050;2024-02-28T04:56:26;20.03;;;14.03;;
21426;SDS011;10874;49.452;11.050;2024-02-28T04:58:53;18.80;;;12.77;;
21426;SDS011;10874;49.452;11.050;2024-02-28T05:01:20;19.37;;;12.97;;
21426;SDS011;10874;49.452;11.050;2024-02-28T05:03:48;20.00;;;12.50;;
21426;SDS011;10874;49.452;11.050;2024-02-28T05:06:14;19.93;;;13.47;;
21426;SDS011;10874;49.452;11.050;2024-02-28T05:08:41;18.57;;;13.37;;
21426;SDS011;10874;49.452;11.050;2024-02-28T05:11:08;16.87;;;12.43;;
21426;SDS011;10874;49.452;11.050;2024-02-28T05:13:35;20.43;;;14.43;;
21426;SDS011;10874;49.452;11.050;2024-02-28T05:16:02;21.00;;;13.87;;
21426;SDS011;10874;49.452;11.050;2024-02-28T05:18:29;20.37;;;13.80;;
21426;SDS011;10874;49.452;11.050;2024-02-28T05:20:55;20.13;;;14.50;;
21426;SDS011;10874;49.452;11.050;2024-02-28T05:23:22;19.80;;;13.93;;
21426;SDS011;10874;49.452;11.050;2024-02-28T05:25:49;20.07;;;13.03;;
21426;SDS011;10874;49.452;11.050;2024-02-28T05:28:16;21.07;;;13.53;;
21426;SDS011;10874;49.452;11.050;2024-02-28T05:30:43;18.20;;;12.93;;
21426;SDS011;10874;49.452;11.050;2024-02-28T05:33:14;20.70;;;14.03;;
21426;SDS011;10874;49.452;11.050;2024-02-28T05:35:41;20.23;;;13.47;;
21426;SDS011;10874;49.452;11.050;2024-02-28T05:38:08;17.87;;;13.30;;
21426;SDS011;10874;49.452;11.050;2024-02-28T05:40:34;17.87;;;12.90;;
21426;SDS011;10874;49.452;11.050;2024-02-28T05:43:01;17.43;;;12.17;;
21426;SDS011;10874;49.452;11.050;2024-02-28T05:45:28;22.80;;;13.83;;
21426;SDS011;10874;49.452;11.050;2024-02-28T05:47:55;20.63;;;13.13;;
21426;SDS011;10874;49.452;11.050;2024-02-28T05:50:22;18.53;;;13.37;;
21426;SDS011;10874;49.452;11.050;2024-02-28T05:52:49;18.63;;;13.40;;
21426;SDS011;10874;49.452;11.050;2024-02-28T05:55:15;20.13;;;13.80;;
21426;SDS011;10874;49.452;11.050;2024-02-28T05:57:42;18.07;;;12.93;;
21426;SDS011;10874;49.452;11.050;2024-02-28T06:00:09;19.23;;;12.47;;
21426;SDS011;10874;49.452;11.050;2024-02-28T06:02:37;20.57;;;13.77;;
21426;SDS011;10874;49.452;11.050;2024-02-28T06:05:04;17.33;;;12.77;;
21426;SDS011;10874;49.452;11.050;2024-02-28T06:07:31;18.03;;;13.43;;
21426;SDS011;10874;49.452;11.050;2024-02-28T06:09:58;19.33;;;13.20;;
21426;SDS011;10874;49.452;11.050;2024-02-28T06:12:25;20.07;;;12.80;;
21426;SDS011;10874;49.452;11.050;2024-02-28T06:14:51;16.73;;;11.27;;
21426;SDS011;10874;49.452;11.050;2024-02-28T06:17:20;17.93;;;13.33;;
21426;SDS011;10874;49.452;11.050;2024-02-28T06:19:46;18.07;;;12.03;;
21426;SDS011;10874;49.452;11.050;2024-02-28T06:22:13;18.07;;;12.87;;
21426;SDS011;10874;49.452;11.050;2024-02-28T06:24:40;19.60;;;12.93;;
21426;SDS011;10874;49.452;11.050;2024-02-28T06:27:07;17.20;;;12.67;;
21426;SDS011;10874;49.452;11.050;2024-02-28T06:29:39;20.87;;;13.23;;
21426;SDS011;10874;49.452;11.050;2024-02-28T06:32:06;24.00;;;14.40;;
21426;SDS011;10874;49.452;11.050;2024-02-28T06:34:33;21.10;;;14.50;;
21426;SDS011;10874;49.452;11.050;2024-02-28T06:37:00;20.40;;;13.73;;
21426;SDS011;10874;49.452;11.050;2024-02-28T06:39:26;16.80;;;12.40;;
21426;SDS011;10874;49.452;11.050;2024-02-28T06:41:53;18.37;;;12.63;;
21426;SDS011;10874;49.452;11.050;2024-02-28T06:44:20;17.43;;;12.30;;
21426;SDS011;10874;49.452;11.050;2024-02-28T06:46:47;18.77;;;13.50;;
21426;SDS011;10874;49.452;11.050;2024-02-28T06:49:14;28.00;;;13.40;;
21426;SDS011;10874;49.452;11.050;2024-02-28T06:51:42;16.40;;;11.77;;
21426;SDS011;10874;49.452;11.050;2024-02-28T06:54:09;19.23;;;12.50;;
21426;SDS011;10874;49.452;11.050;2024-02-28T06:56:37;18.53;;;12.60;;
21426;SDS011;10874;49.452;11.050;2024-02-28T06:59:03;18.70;;;12.77;;
21426;SDS011;10874;49.452;11.050;2024-02-28T07:01:30;18.67;;;12.63;;
21426;SDS011;10874;49.452;11.050;2024-02-28T07:03:57;18.30;;;11.77;;
21426;SDS011;10874;49.452;11.050;2024-02-28T07:06:24;18.37;;;12.27;;
21426;SDS011;10874;49.452;11.050;2024-02-28T07:08:51;18.23;;;11.73;;
21426;SDS011;10874;49.452;11.050;2024-02-28T07:11:18;21.17;;;13.20;;
21426;SDS011;10874;49.452;11.050;2024-02-28T07:13:44;20.93;;;13.27;;
21426;SDS011;10874;49.452;11.050;2024-02-28T07:16:11;26.77;;;14.17;;
21426;SDS011;10874;49.452;11.050;2024-02-28T07:18:38;19.80;;;13.70;;
21426;SDS011;10874;49.452;11.050;2024-02-28T07:21:04;18.27;;;12.83;;
21426;SDS011;10874;49.452;11.050;2024-02-28T07:23:33;16.20;;;12.37;;
21426;SDS011;10874;49.452;11.050;2024-02-28T07:26:00;17.97;;;12.33;;
21426;SDS011;10874;49.452;11.050;2024-02-28T07:28:38;18.93;;;12.03;;
21426;SDS011;10874;49.452;11.050;2024-02-28T07:31:05;17.43;;;12.23;;
21426;SDS011;10874;49.452;11.050;2024-02-28T07:33:32;17.13;;;12.03;;
21426;SDS011;10874;49.452;11.050;2024-02-28T07:35:59;17.47;;;11.20;;
21426;SDS011;10874;49.452;11.050;2024-02-28T07:38:27;17.37;;;12.30;;
21426;SDS011;10874;49.452;11.050;2024-02-28T07:40:54;16.97;;;11.87;;
21426;SDS011;10874;49.452;11.050;2024-02-28T07:43:21;15.17;;;11.70;;
21426;SDS011;10874;49.452;11.050;2024-02-28T07:45:47;18.37;;;12.23;;
21426;SDS011;10874;49.452;11.050;2024-02-28T07:48:14;18.60;;;13.27;;
21426;SDS011;10874;49.452;11.050;2024-02-28T07:50:44;14.80;;;11.73;;
21426;SDS011;10874;49.452;11.050;2024-02-28T07:53:11;16.90;;;11.97;;
21426;SDS011;10874;49.452;11.050;2024-02-28T07:55:39;17.90;;;12.83;;
21426;SDS011;10874;49.452;11.050;2024-02-28T07:58:05;18.13;;;13.13;;
21426;SDS011;10874;49.452;11.050;2024-02-28T08:00:32;16.87;;;11.60;;
21426;SDS011;10874;49.452;11.050;2024-02-28T08:03:02;18.07;;;12.87;;
21426;SDS011;10874;49.452;11.050;2024-02-28T08:05:29;18.50;;;13.30;;
21426;SDS011;10874;49.452;11.050;2024-02-28T08:07:56;19.40;;;12.90;;
21426;SDS011;10874;49.452;11.050;2024-02-28T08:10:23;16.03;;;12.73;;
21426;SDS011;10874;49.452;11.050;2024-02-28T08:12:50;17.10;;;12.17;;
21426;SDS011;10874;49.452;11.050;2024-02-28T08:15:17;21.60;;;13.37;;
21426;SDS011;10874;49.452;11.050;2024-02-28T08:17:43;17.63;;;13.33;;
21426;SDS011;10874;49.452;11.050;2024-02-28T08:20:10;19.20;;;14.43;;
21426;SDS011;10874;49.452;11.050;2024-02-28T08:22:37;17.57;;;12.27;;
21426;SDS011;10874;49.452;11.050;2024-02-28T08:25:04;16.57;;;12.83;;
21426;SDS011;10874;49.452;11.050;2024-02-28T08:27:31;19.07;;;12.70;;
21426;SDS011;10874;49.452;11.050;2024-02-28T08:29:59;20.47;;;13.17;;
21426;SDS011;10874;49.452;11.050;2024-02-28T08:32:26;17.70;;;12.97;;
21426;SDS011;10874;49.452;11.050;2024-02-28T08:34:53;17.60;;;13.10;;
21426;SDS011;10874;49.452;11.050;2024-02-28T08:37:20;16.77;;;13.20;;
21426;SDS011;10874;49.452;11.050;2024-02-28T08:39:47;19.10;;;13.27;;
21426;SDS011;10874;49.452;11.050;2024-02-28T08:42:14;16.23;;;11.73;;
21426;SDS011;10874;49.452;11.050;2024-02-28T08:44:41;18.30;;;12.83;;
21426;SDS011;10874;49.452;11.050;2024-02-28T08:47:08;17.43;;;11.40;;
21426;SDS011;10874;49.452;11.050;2024-02-28T08:49:35;17.67;;;12.40;;
21426;SDS011;10874;49.452;11.050;2024-02-28T08:52:02;17.90;;;12.50;;
21426;SDS011;10874;49.452;11.050;2024-02-28T08:54:30;16.20;;;12.30;;
21426;SDS011;10874;49.452;11.050;2024-02-28T08:56:57;17.90;;;13.50;;
21426;SDS011;10874;49.452;11.050;2024-02-28T08:59:29;17.73;;;12.20;;
21426;SDS011;10874;49.452;11.050;2024-02-28T09:01:56;16.13;;;12.27;;
21426;SDS011;10874;49.452;11.050;2024-02-28T09:04:23;17.60;;;11.67;;
21426;SDS011;10874;49.452;11.050;2024-02-28T09:06:50;17.03;;;12.20;;
21426;SDS011;10874;49.452;11.050;2024-02-28T09:09:16;17.70;;;13.00;;
21426;SDS011;10874;49.452;11.050;2024-02-28T09:11:43;17.47;;;12.43;;
21426;SDS011;10874;49.452;11.050;2024-02-28T09:14:10;15.40;;;12.00;;
21426;SDS011;10874;49.452;11.050;2024-02-28T09:16:37;17.50;;;12.57;;
21426;SDS011;10874;49.452;11.050;2024-02-28T09:19:04;15.53;;;11.90;;
21426;SDS011;10874;49.452;11.050;2024-02-28T09:21:31;16.70;;;12.07;;
21426;SDS011;10874;49.452;11.050;2024-02-28T09:23:57;13.53;;;11.00;;
21426;SDS011;10874;49.452;11.050;2024-02-28T09:26:24;14.07;;;11.20;;
21426;SDS011;10874;49.452;11.050;2024-02-28T09:28:52;16.73;;;11.10;;
21426;SDS011;10874;49.452;11.050;2024-02-28T09:31:18;15.17;;;11.43;;
21426;SDS011;10874;49.452;11.050;2024-02-28T09:33:45;15.03;;;11.50;;
21426;SDS011;10874;49.452;11.050;2024-02-28T09:36:13;15.17;;;11.47;;
21426;SDS011;10874;49.452;11.050;2024-02-28T09:38:40;14.37;;;11.60;;
21426;SDS011;10874;49.452;11.050;2024-02-28T09:41:08;14.03;;;11.23;;
21426;SDS011;10874;49.452;11.050;2024-02-28T09:43:38;14.67;;;12.00;;
21426;SDS011;10874;49.452;11.050;2024-02-28T09:46:07;16.83;;;11.87;;
21426;SDS011;10874;49.452;11.050;2024-02-28T09:48:34;16.20;;;12.50;;
21426;SDS011;10874;49.452;11.050;2024-02-28T09:51:01;13.03;;;11.43;;
21426;SDS011;10874;49.452;11.050;2024-02-28T09:53:28;14.10;;;11.57;;
21426;SDS011;10874;49.452;11.050;2024-02-28T09:55:55;14.47;;;11.23;;
21426;SDS011;10874;49.452;11.050;2024-02-28T09:58:22;14.77;;;11.47;;
21426;SDS011;10874;49.452;11.050;2024-02-28T10:00:49;15.33;;;11.43;;
21426;SDS011;10874;49.452;11.050;2024-02-28T10:03:17;12.93;;;11.27;;
21426;SDS011;10874;49.452;11.050;2024-02-28T10:05:48;13.57;;;11.57;;
21426;SDS011;10874;49.452;11.050;2024-02-28T10:08:15;15.07;;;10.80;;
21426;SDS011;10874;49.452;11.050;2024-02-28T10:10:46;13.33;;;11.30;;
21426;SDS011;10874;49.452;11.050;2024-02-28T10:13:16;14.50;;;11.23;;
21426;SDS011;10874;49.452;11.050;2024-02-28T10:15:44;12.80;;;10.90;;
21426;SDS011;10874;49.452;11.050;2024-02-28T10:18:11;13.83;;;11.57;;
21426;SDS011;10874;49.452;11.050;2024-02-28T10:20:37;18.33;;;12.93;;
21426;SDS011;10874;49.452;11.050;2024-02-28T10:23:07;13.83;;;11.07;;
21426;SDS011;10874;49.452;11.050;2024-02-28T10:25:43;14.63;;;11.47;;
21426;SDS011;10874;49.452;11.050;2024-02-28T10:28:23;15.23;;;10.90;;
21426;SDS011;10874;49.452;11.050;2024-02-28T10:30:49;16.07;;;11.77;;
21426;SDS011;10874;49.452;11.050;2024-02-28T10:33:16;14.63;;;11.70;;
21426;SDS011;10874;49.452;11.050;2024-02-28T10:35:43;34.87;;;25.57;;
21426;SDS011;10874;49.452;11.050;2024-02-28T10:38:11;16.03;;;13.33;;
21426;SDS011;10874;49.452;11.050;2024-02-28T10:40:41;15.23;;;11.83;;
21426;SDS011;10874;49.452;11.050;2024-02-28T10:43:09;16.23;;;12.40;;
21426;SDS011;10874;49.452;11.050;2024-02-28T10:45:36;14.50;;;11.20;;
21426;SDS011;10874;49.452;11.050;2024-02-28T10:48:25;13.30;;;11.27;;
21426;SDS011;10874;49.452;11.050;2024-02-28T10:50:52;18.13;;;13.10;;
21426;SDS011;10874;49.452;11.050;2024-02-28T10:53:22;21.67;;;15.47;;
21426;SDS011;10874;49.452;11.050;2024-02-28T10:55:50;15.33;;;11.77;;
21426;SDS011;10874;49.452;11.050;2024-02-28T10:58:18;13.30;;;11.30;;
21426;SDS011;10874;49.452;11.050;2024-02-28T11:00:45;13.07;;;11.03;;
21426;SDS011;10874;49.452;11.050;2024-02-28T11:03:16;13.67;;;10.07;;
21426;SDS011;10874;49.452;11.050;2024-02-28T11:05:43;12.57;;;10.37;;
21426;SDS011;10874;49.452;11.050;2024-02-28T11:08:23;14.60;;;11.40;;
21426;SDS011;10874;49.452;11.050;2024-02-28T11:10:56;13.50;;;10.73;;
21426;SDS011;10874;49.452;11.050;2024-02-28T11:13:23;13.33;;;10.90;;
21426;SDS011;10874;49.452;11.050;2024-02-28T11:15:50;14.53;;;11.23;;
21426;SDS011;10874;49.452;11.050;2024-02-28T11:18:18;14.37;;;11.07;;
21426;SDS011;10874;49.452;11.050;2024-02-28T11:20:45;13.43;;;10.43;;
21426;SDS011;10874;49.452;11.050;2024-02-28T11:23:16;18.40;;;14.03;;
21426;SDS011;10874;49.452;11.050;2024-02-28T11:25:43;16.93;;;12.83;;
21426;SDS011;10874;49.452;11.050;2024-02-28T11:28:10;12.83;;;10.63;;
21426;SDS011;10874;49.452;11.050;2024-02-28T11:30:37;15.13;;;11.03;;
21426;SDS011;10874;49.452;11.050;2024-02-28T11:33:04;15.10;;;10.50;;
21426;SDS011;10874;49.452;11.050;2024-02-28T11:35:32;14.03;;;10.20;;
21426;SDS011;10874;49.452;11.050;2024-02-28T11:37:59;12.63;;;10.80;;
21426;SDS011;10874;49.452;11.050;2024-02-28T11:40:26;15.07;;;10.07;;
21426;SDS011;10874;49.452;11.050;2024-02-28T11:42:56;14.90;;;10.33;;
21426;SDS011;10874;49.452;11.050;2024-02-28T11:45:24;13.50;;;10.13;;
21426;SDS011;10874;49.452;11.050;2024-02-28T11:47:52;14.03;;;10.37;;
21426;SDS011;10874;49.452;11.050;2024-02-28T11:50:19;14.80;;;11.07;;
21426;SDS011;10874;49.452;11.050;2024-02-28T11:52:45;12.30;;;9.73;;
21426;SDS011;10874;49.452;11.050;2024-02-28T11:55:12;14.70;;;10.63;;
21426;SDS011;10874;49.452;11.050;2024-02-28T11:57:39;13.40;;;10.43;;
21426;SDS011;10874;49.452;11.050;2024-02-28T12:00:07;15.10;;;11.03;;
21426;SDS011;10874;49.452;11.050;2024-02-28T12:02:35;13.43;;;10.57;;
21426;SDS011;10874;49.452;11.050;2024-02-28T12:05:02;13.07;;;10.33;;
21426;SDS011;10874;49.452;11.050;2024-02-28T12:07:33;14.63;;;10.57;;
21426;SDS011;10874;49.452;11.050;2024-02-28T12:10:00;13.17;;;10.07;;
21426;SDS011;10874;49.452;11.050;2024-02-28T12:12:27;13.23;;;10.00;;
21426;SDS011;10874;49.452;11.050;2024-02-28T12:14:57;14.40;;;10.93;;
21426;SDS011;10874;49.452;11.050;2024-02-28T12:17:25;13.23;;;10.33;;
21426;SDS011;10874;49.452;11.050;2024-02-28T12:19:52;13.43;;;10.30;;
21426;SDS011;10874;49.452;11.050;2024-02-28T12:22:21;15.57;;;11.03;;
21426;SDS011;10874;49.452;11.050;2024-02-28T12:24:48;14.93;;;10.53;;
21426;SDS011;10874;49.452;11.050;2024-02-28T12:27:15;12.53;;;10.23;;
21426;SDS011;10874;49.452;11.050;2024-02-28T12:29:42;11.20;;;9.67;;
21426;SDS011;10874;49.452;11.050;2024-02-28T12:32:09;12.33;;;9.77;;
21426;SDS011;10874;49.452;11.050;2024-02-28T12:34:35;15.23;;;10.53;;
21426;SDS011;10874;49.452;11.050;2024-02-28T12:37:02;14.27;;;9.77;;
21426;SDS011;10874;49.452;11.050;2024-02-28T12:39:30;14.53;;;9.80;;
21426;SDS011;10874;49.452;11.050;2024-02-28T12:42:00;14.97;;;10.10;;
21426;SDS011;10874;49.452;11.050;2024-02-28T12:44:27;16.03;;;10.83;;
21426;SDS011;10874;49.452;11.050;2024-02-28T12:46:54;15.07;;;11.10;;
21426;SDS011;10874;49.452;11.050;2024-02-28T12:49:21;14.07;;;10.57;;
21426;SDS011;10874;49.452;11.050;2024-02-28T12:51:48;13.10;;;10.53;;
21426;SDS011;10874;49.452;11.050;2024-02-28T12:54:15;15.10;;;10.23;;
21426;SDS011;10874;49.452;11.050;2024-02-28T12:56:42;13.17;;;10.07;;
21426;SDS011;10874;49.452;11.050;2024-02-28T12:59:12;13.20;;;10.17;;
21426;SDS011;10874;49.452;11.050;2024-02-28T13:01:39;12.33;;;9.30;;
21426;SDS011;10874;49.452;11.050;2024-02-28T13:04:06;12.53;;;10.00;;
21426;SDS011;10874;49.452;11.050;2024-02-28T13:06:33;12.70;;;9.80;;
21426;SDS011;10874;49.452;11.050;2024-02-28T13:09:00;11.53;;;10.03;;
21426;SDS011;10874;49.452;11.050;2024-02-28T13:11:27;11.27;;;9.10;;
21426;SDS011;10874;49.452;11.050;2024-02-28T13:13:54;11.77;;;9.23;;
21426;SDS011;10874;49.452;11.050;2024-02-28T13:16:21;10.93;;;8.70;;
21426;SDS011;10874;49.452;11.050;2024-02-28T13:18:48;13.30;;;8.90;;
21426;SDS011;10874;49.452;11.050;2024-02-28T13:21:15;11.03;;;8.60;;
21426;SDS011;10874;49.452;11.050;2024-02-28T13:23:42;10.20;;;8.03;;
21426;SDS011;10874;49.452;11.050;2024-02-28T13:26:09;11.87;;;8.83;;
21426;SDS011;10874;49.452;11.050;2024-02-28T13:28:36;9.60;;;8.17;;
21426;SDS011;10874;49.452;11.050;2024-02-28T13:31:03;10.67;;;7.80;;
21426;SDS011;10874;49.452;11.050;2024-02-28T13:33:33;9.60;;;7.90;;
21426;SDS011;10874;49.452;11.050;2024-02-28T13:36:02;10.93;;;8.50;;
21426;SDS011;10874;49.452;11.050;2024-02-28T13:38:29;10.13;;;7.80;;
21426;SDS011;10874;49.452;11.050;2024-02-28T13:40:57;10.60;;;8.03;;
21426;SDS011;10874;49.452;11.050;2024-02-28T13:43:23;10.37;;;7.93;;
21426;SDS011;10874;49.452;11.050;2024-02-28T13:45:50;11.60;;;6.80;;
21426;SDS011;10874;49.452;11.050;2024-02-28T13:48:19;10.77;;;7.20;;
21426;SDS011;10874;49.452;11.050;2024-02-28T13:50:48;10.57;;;7.30;;
21426;SDS011;10874;49.452;11.050;2024-02-28T13:53:15;9.90;;;7.80;;
21426;SDS011;10874;49.452;11.050;2024-02-28T13:55:42;73.43;;;46.20;;
21426;SDS011;10874;49.452;11.050;2024-02-28T13:58:10;31.67;;;19.53;;
21426;SDS011;10874;49.452;11.050;2024-02-28T14:00:38;12.50;;;9.30;;
21426;SDS011;10874;49.452;11.050;2024-02-28T14:03:05;9.47;;;8.23;;
21426;SDS011;10874;49.452;11.050;2024-02-28T14:05:34;10.50;;;8.10;;
21426;SDS011;10874;49.452;11.050;2024-02-28T14:08:01;11.53;;;8.83;;
21426;SDS011;10874;49.452;11.050;2024-02-28T14:10:30;8.70;;;7.67;;
21426;SDS011;10874;49.452;11.050;2024-02-28T14:12:57;11.00;;;8.57;;